Time;durP1;ratioP1;P1;durP2;ratioP2;P2;SDS_P1;SDS_P2;PMS_P1;PMS_P2;Temp;Humidity;BMP_temperature;BMP_pressure;BME280_temperature;BME280_humidity;BME280_pressure;Samples;Min_cycle;Max_cycle;Signal;HPM_P1;HPM_P2
2022/02/05 00:00:23;;;;;;;5.10;4.60;;;;;;;6.34;100.00;99099.50;4901298;29;20663;-80
2022/02/05 00:05:35;;;;;;;5.23;4.53;;;;;;;6.58;100.00;99109.47;4889186;29;20186;-79
2022/02/05 00:43:11;;;;;;;8.27;7.47;;;;;;;5.58;100.00;99128.16;4891479;29;20199;-80
2022/02/05 00:45:43;;;;;;;9.17;8.20;;;;;;;5.51;100.00;99128.13;4902153;29;20613;-81
2022/02/05 00:48:12;;;;;;;9.70;8.53;;;;;;;5.46;100.00;99130.56;4886968;29;20257;-82
2022/02/05 00:50:43;;;;;;;10.33;8.87;;;;;;;5.27;100.00;99120.72;4902247;29;20498;-82
2022/02/05 00:55:41;;;;;;;10.03;9.03;;;;;;;5.17;100.00;99130.88;4886254;29;20253;-81
2022/02/05 00:58:08;;;;;;;11.73;8.83;;;;;;;5.03;100.00;99142.44;4901787;29;20209;-80
2022/02/05 01:00:36;;;;;;;10.83;9.37;;;;;;;4.99;100.00;99147.31;4886523;29;20195;-80
2022/02/05 01:03:04;;;;;;;11.03;9.63;;;;;;;4.88;100.00;99132.75;4901410;29;20258;-80
2022/02/05 01:05:31;;;;;;;10.80;9.70;;;;;;;4.85;100.00;99140.28;4882636;29;20298;-80
2022/02/05 01:07:58;;;;;;;11.60;10.13;;;;;;;4.84;100.00;99138.66;4898395;29;20198;-80
2022/02/05 01:10:25;;;;;;;11.23;9.53;;;;;;;4.74;100.00;99140.81;4918150;29;20204;-80
2022/02/05 01:13:03;;;;;;;12.07;10.50;;;;;;;4.63;100.00;99144.00;4901559;29;20244;-80
2022/02/05 01:15:47;;;;;;;11.70;10.03;;;;;;;4.54;100.00;99138.03;4903060;29;20182;-80
2022/02/05 01:18:16;;;;;;;11.40;9.90;;;;;;;4.37;100.00;99140.16;4903678;29;20178;-81
2022/02/05 01:21:03;;;;;;;11.53;10.33;;;;;;;4.33;100.00;99135.41;4885972;29;20201;-81
2022/02/05 01:23:39;;;;;;;12.50;10.70;;;;;;;4.27;100.00;99123.75;4904382;29;20183;-80
2022/02/05 01:26:23;;;;;;;13.83;10.07;;;;;;;4.20;100.00;99120.19;4886445;29;20209;-81
2022/02/05 01:28:58;;;;;;;12.50;10.20;;;;;;;4.15;100.00;99109.38;4887751;29;20222;-81
2022/02/05 01:31:30;;;;;;;12.43;10.40;;;;;;;4.20;100.00;99106.94;4901361;29;20598;-81
2022/02/05 01:53:05;;;;;;;8.63;7.73;;;;;;;4.39;100.00;99129.31;4903596;29;20194;-81
2022/02/05 01:55:56;;;;;;;8.27;7.17;;;;;;;4.52;100.00;99120.66;4903881;29;20206;-81
2022/02/05 02:11:42;;;;;;;5.53;5.00;;;;;;;4.67;100.00;99106.28;4904077;29;20187;-81
2022/02/05 02:19:32;;;;;;;5.10;4.70;;;;;;;4.74;100.00;99095.72;4900987;29;20209;-80
2022/02/05 02:22:06;;;;;;;6.00;5.40;;;;;;;4.76;100.00;99094.47;4902571;29;20490;-81
2022/02/05 02:27:35;;;;;;;8.10;6.80;;;;;;;4.82;100.00;99087.56;4888345;29;20221;-80
2022/02/05 02:30:27;;;;;;;7.73;6.80;;;;;;;4.90;100.00;99102.53;4888673;29;20190;-79
2022/02/05 02:33:23;;;;;;;8.70;6.97;;;;;;;4.97;100.00;99098.06;4888282;29;20178;-80
2022/02/05 02:35:45;;;;;;;9.60;7.43;;;;;;;4.99;100.00;99104.03;4903296;29;20554;-80
2022/02/05 02:38:15;;;;;;;7.67;6.87;;;;;;;4.99;100.00;99104.84;4884366;29;20191;-80
2022/02/05 02:40:55;;;;;;;6.93;6.23;;;;;;;5.06;100.00;99100.38;4870725;29;20190;-80
2022/02/05 02:43:26;;;;;;;7.40;5.93;;;;;;;5.16;100.00;99108.81;4885779;29;20179;-80
2022/02/05 02:45:52;;;;;;;4.80;4.30;;;;;;;5.55;100.00;99094.81;4878832;29;20293;-79
2022/02/05 02:48:20;;;;;;;3.13;2.10;;;;;;;6.09;100.00;99107.25;4904603;29;20205;-80
2022/02/05 02:56:54;;;;;;;2.60;1.10;;;;;;;7.59;100.00;99145.28;4803608;29;20726;-82
2022/02/05 02:59:47;;;;;;;1.57;1.27;;;;;;;7.92;100.00;99145.13;4875927;29;20213;-81
2022/02/05 03:02:17;;;;;;;2.23;1.33;;;;;;;8.25;100.00;99139.56;4903514;29;20274;-81
2022/02/05 03:04:44;;;;;;;1.20;1.10;;;;;;;8.61;100.00;99139.72;4889372;29;20178;-80
2022/02/05 03:07:10;;;;;;;1.10;1.00;;;;;;;8.69;100.00;99138.63;4903324;29;20208;-80
2022/02/05 03:09:38;;;;;;;1.30;1.07;;;;;;;8.74;100.00;99146.78;4903808;29;20225;-80
2022/02/05 03:12:05;;;;;;;1.40;1.30;;;;;;;8.88;100.00;99144.81;4874264;29;20517;-81
2022/02/05 03:14:32;;;;;;;1.20;1.07;;;;;;;8.77;100.00;99157.84;4869667;29;20242;-81
2022/02/05 03:17:14;;;;;;;1.30;1.20;;;;;;;8.85;100.00;99154.09;4883444;29;20658;-80
2022/02/05 03:19:41;;;;;;;1.40;1.10;;;;;;;8.83;100.00;99159.66;4886955;29;20187;-80
2022/02/05 03:22:08;;;;;;;1.13;1.00;;;;;;;8.74;100.00;99146.78;4901535;29;20279;-80
2022/02/05 03:24:35;;;;;;;0.80;0.80;;;;;;;8.82;100.00;99155.34;4869674;29;20580;-78
2022/02/05 03:27:02;;;;;;;1.40;1.30;;;;;;;8.88;100.00;99160.84;4900653;29;20194;-78
2022/02/05 03:29:29;;;;;;;1.00;1.00;;;;;;;9.00;100.00;99146.56;4900285;29;20206;-81
2022/02/05 03:31:55;;;;;;;0.90;0.90;;;;;;;8.93;100.00;99161.81;4884766;29;20214;-77
2022/02/05 03:34:22;;;;;;;0.90;0.90;;;;;;;8.91;100.00;99153.22;4869288;29;20231;-79
2022/02/05 03:36:49;;;;;;;0.90;0.90;;;;;;;9.00;100.00;99162.59;4890350;29;20196;-80
2022/02/05 03:39:16;;;;;;;1.20;1.10;;;;;;;9.00;100.00;99170.59;4887698;29;20208;-81
2022/02/05 03:41:42;;;;;;;1.50;0.80;;;;;;;8.98;100.00;99171.84;4903171;29;20638;-80
2022/02/05 03:44:09;;;;;;;1.20;1.10;;;;;;;8.97;100.00;99168.34;4903211;29;20242;-80
2022/02/05 03:46:36;;;;;;;1.03;0.90;;;;;;;8.95;100.00;99175.78;4877683;29;20199;-81
2022/02/05 03:49:03;;;;;;;1.07;0.90;;;;;;;9.08;100.00;99190.88;4900381;29;20195;-79
2022/02/05 03:51:29;;;;;;;1.53;1.10;;;;;;;9.00;100.00;99194.66;4884279;29;20183;-80
2022/02/05 03:53:56;;;;;;;1.30;1.00;;;;;;;9.06;100.00;99204.44;4884208;29;20211;-80
2022/02/05 03:56:23;;;;;;;1.00;0.90;;;;;;;8.96;100.00;99203.31;4908242;29;20205;-80
2022/02/05 03:58:50;;;;;;;1.10;1.00;;;;;;;8.95;100.00;99205.19;4919824;29;20249;-80
2022/02/05 04:01:16;;;;;;;1.27;1.00;;;;;;;8.89;100.00;99215.91;4902986;29;20193;-79
2022/02/05 04:03:43;;;;;;;1.20;1.10;;;;;;;8.84;100.00;99195.19;4887451;29;20613;-80
2022/02/05 04:06:10;;;;;;;0.80;0.80;;;;;;;8.93;100.00;99217.94;4883764;29;20197;-77
2022/02/05 04:08:37;;;;;;;1.20;1.00;;;;;;;8.82;100.00;99222.13;4887155;29;20203;-79
2022/02/05 04:11:14;;;;;;;1.00;0.80;;;;;;;8.79;100.00;99224.41;4919083;29;20195;-81
2022/02/05 04:16:26;;;;;;;1.13;1.03;;;;;;;8.75;100.00;99244.59;4919134;29;20245;-80
2022/02/05 04:18:55;;;;;;;2.27;1.27;;;;;;;8.69;100.00;99243.59;4886966;29;20309;-80
2022/02/05 04:21:23;;;;;;;0.80;0.80;;;;;;;8.68;100.00;99247.28;4886736;29;20199;-80
2022/02/05 04:23:51;;;;;;;1.30;1.17;;;;;;;8.67;100.00;99220.81;4887121;29;20654;-81
2022/02/05 04:26:19;;;;;;;1.27;1.17;;;;;;;8.75;100.00;99244.59;4901833;29;20229;-81
2022/02/05 04:28:46;;;;;;;1.03;0.93;;;;;;;8.71;100.00;99259.41;4887032;29;20191;-79
2022/02/05 04:31:13;;;;;;;1.20;1.10;;;;;;;8.72;100.00;99261.06;4880348;29;20282;-80
2022/02/05 04:33:39;;;;;;;1.57;1.20;;;;;;;8.66;100.00;99262.72;4886546;29;20210;-79
2022/02/05 04:36:07;;;;;;;1.40;1.30;;;;;;;8.75;100.00;99265.94;4901873;29;20198;-80
2022/02/05 04:38:36;;;;;;;1.43;1.33;;;;;;;8.73;100.00;99268.00;4902420;29;20188;-80
2022/02/05 04:41:20;;;;;;;1.40;1.30;;;;;;;8.66;100.00;99270.75;4868693;29;20250;-80
2022/02/05 04:52:39;;;;;;;1.80;1.50;;;;;;;8.68;100.00;99289.19;4886970;29;20206;-79
2022/02/05 04:57:28;;;;;;;1.90;1.60;;;;;;;8.65;100.00;99300.31;4917150;29;20190;-79
2022/02/05 05:05:16;;;;;;;2.30;1.97;;;;;;;8.64;100.00;99328.88;4900551;29;20197;-80
2022/02/05 05:08:16;;;;;;;2.00;1.60;;;;;;;8.71;100.00;99324.34;4869029;29;20278;-79
2022/02/05 05:21:26;;;;;;;2.20;2.00;;;;;;;8.84;100.00;99380.34;4917321;29;20202;-79
2022/02/05 05:23:53;;;;;;;2.40;1.63;;;;;;;8.97;100.00;99387.47;4870539;29;20206;-80
2022/02/05 05:26:19;;;;;;;1.93;1.80;;;;;;;8.89;100.00;99378.88;4885294;29;20194;-80
2022/02/05 05:28:46;;;;;;;1.80;1.70;;;;;;;8.74;100.00;99374.66;4885814;29;20590;-80
2022/02/05 05:31:13;;;;;;;2.80;1.77;;;;;;;8.84;100.00;99391.03;4886135;29;20205;-79
2022/02/05 05:33:39;;;;;;;2.00;1.80;;;;;;;8.90;100.00;99409.91;4886019;29;20214;-80
2022/02/05 05:36:06;;;;;;;1.97;1.87;;;;;;;8.76;100.00;99411.84;4881893;29;20234;-79
2022/02/05 05:38:33;;;;;;;1.50;1.40;;;;;;;8.83;100.00;99429.47;4867112;29;20492;-80
2022/02/05 05:41:00;;;;;;;1.73;1.63;;;;;;;8.87;100.00;99447.72;4882546;29;20231;-80
2022/02/05 05:43:41;;;;;;;1.57;1.47;;;;;;;8.73;100.00;99452.31;4877818;29;20556;-80
2022/02/05 05:46:19;;;;;;;1.33;1.23;;;;;;;8.65;100.00;99468.56;4887282;29;20198;-79
2022/02/05 05:51:18;;;;;;;1.43;1.33;;;;;;;8.30;100.00;99503.59;4902050;29;20270;-80
2022/02/05 05:53:46;;;;;;;1.20;1.07;;;;;;;8.13;100.00;99504.19;4901126;29;20206;-81
2022/02/05 05:56:12;;;;;;;1.83;0.97;;;;;;;7.82;100.00;99513.63;4901506;29;20195;-81
2022/02/05 05:58:39;;;;;;;1.20;1.00;;;;;;;7.49;100.00;99505.59;4887243;29;20325;-81
2022/02/05 06:01:07;;;;;;;1.10;1.00;;;;;;;7.28;100.00;99513.75;4902975;29;20210;-81
2022/02/05 06:03:34;;;;;;;1.23;0.90;;;;;;;7.18;100.00;99521.31;4886622;29;20203;-81
2022/02/05 06:06:01;;;;;;;1.00;1.00;;;;;;;6.94;100.00;99529.84;4901256;29;20202;-81
2022/02/05 06:08:28;;;;;;;0.70;0.70;;;;;;;6.77;100.00;99541.81;4901196;29;20276;-81
2022/02/05 06:10:55;;;;;;;1.07;0.90;;;;;;;6.67;100.00;99552.03;4882269;29;20615;-81
2022/02/05 06:13:22;;;;;;;1.03;0.93;;;;;;;6.51;100.00;99561.13;4884880;29;20205;-80
2022/02/05 06:15:51;;;;;;;1.10;0.90;;;;;;;6.38;100.00;99567.19;4904278;29;20301;-81
2022/02/05 06:18:18;;;;;;;1.07;0.80;;;;;;;6.33;100.00;99572.28;4904045;29;20221;-81
2022/02/05 06:20:45;;;;;;;1.70;0.90;;;;;;;6.27;100.00;99569.56;4872978;29;20233;-81
2022/02/05 06:23:12;;;;;;;1.50;0.90;;;;;;;6.33;100.00;99587.41;4936332;29;20198;-82
2022/02/05 06:25:41;;;;;;;0.87;0.83;;;;;;;6.35;100.00;99590.69;4890603;29;20200;-81
2022/02/05 06:28:14;;;;;;;1.40;0.87;;;;;;;6.29;100.00;99587.00;4897322;29;20195;-82
2022/02/05 06:30:42;;;;;;;1.63;0.90;;;;;;;6.28;100.00;99595.16;4889520;29;20202;-80
2022/02/05 06:33:09;;;;;;;0.80;0.80;;;;;;;6.25;100.00;99587.56;4904496;29;20222;-81
2022/02/05 06:35:36;;;;;;;1.70;1.10;;;;;;;6.17;100.00;99597.31;4903989;29;20510;-81
2022/02/05 06:38:03;;;;;;;2.30;1.40;;;;;;;6.18;100.00;99614.94;4888973;29;20577;-80
2022/02/05 06:40:30;;;;;;;1.80;1.40;;;;;;;6.10;100.00;99622.22;4885975;29;20199;-80
2022/02/05 06:42:57;;;;;;;1.13;1.03;;;;;;;6.15;100.00;99627.78;4887943;29;20238;-81
2022/02/05 06:45:24;;;;;;;1.80;1.70;;;;;;;6.15;100.00;99625.13;4872639;29;20214;-81
2022/02/05 06:47:51;;;;;;;1.00;0.90;;;;;;;6.23;100.00;99638.31;4902965;29;20289;-80
2022/02/05 06:50:17;;;;;;;1.10;1.00;;;;;;;6.29;100.00;99648.19;4903490;29;20224;-81
2022/02/05 06:52:45;;;;;;;1.30;1.10;;;;;;;6.35;100.00;99646.56;4888680;29;20277;-81
2022/02/05 06:55:12;;;;;;;1.33;1.10;;;;;;;6.37;100.00;99647.22;4885108;29;20551;-80
2022/02/05 06:57:39;;;;;;;2.20;1.00;;;;;;;6.41;100.00;99659.94;4871159;29;20191;-81
2022/02/05 07:00:07;;;;;;;0.83;0.83;;;;;;;6.53;100.00;99663.72;4895108;29;20465;-81
2022/02/05 07:02:35;;;;;;;1.10;0.90;;;;;;;6.54;100.00;99668.03;4888145;29;20293;-81
2022/02/05 07:05:01;;;;;;;1.20;1.10;;;;;;;6.50;100.00;99693.41;4903135;29;20217;-81
2022/02/05 07:07:28;;;;;;;1.87;1.10;;;;;;;6.55;100.00;99687.50;4882731;29;20201;-80
2022/02/05 07:09:55;;;;;;;1.50;1.27;;;;;;;6.46;100.00;99686.81;4884729;29;20198;-81
2022/02/05 07:12:22;;;;;;;1.27;1.17;;;;;;;6.46;100.00;99693.97;4884360;29;20195;-81
2022/02/05 07:15:10;;;;;;;1.33;1.10;;;;;;;6.48;100.00;99673.31;4896973;29;20228;-81
2022/02/05 07:17:56;;;;;;;1.10;1.00;;;;;;;6.51;100.00;99688.91;4887969;29;20198;-81
2022/02/05 07:20:36;;;;;;;0.93;0.90;;;;;;;6.56;100.00;99687.31;4888519;29;20183;-81
2022/02/05 07:31:11;;;;;;;1.27;1.20;;;;;;;6.44;100.00;99712.78;4907121;29;20257;-80
2022/02/05 07:33:38;;;;;;;1.63;1.00;;;;;;;6.41;100.00;99705.19;4887330;29;20197;-81
2022/02/05 07:36:05;;;;;;;1.40;1.20;;;;;;;6.53;100.00;99719.63;4887436;29;20214;-82
2022/02/05 07:38:32;;;;;;;1.40;1.30;;;;;;;6.63;100.00;99713.97;4879130;29;20207;-81
2022/02/05 07:40:59;;;;;;;1.50;1.20;;;;;;;6.83;100.00;99720.28;4883529;29;20235;-81
2022/02/05 07:43:28;;;;;;;1.27;1.17;;;;;;;7.18;100.00;99729.16;4868351;29;20266;-81
2022/02/05 07:45:56;;;;;;;1.73;1.10;;;;;;;7.63;100.00;99726.94;4868681;29;20187;-80
2022/02/05 07:48:23;;;;;;;1.30;1.20;;;;;;;7.76;100.00;99713.66;4884422;29;20191;-81
2022/02/05 07:50:49;;;;;;;1.10;1.10;;;;;;;7.88;100.00;99722.75;4884176;29;20197;-81
2022/02/05 07:53:16;;;;;;;1.33;1.23;;;;;;;7.71;100.00;99711.59;4900742;29;20205;-81
2022/02/05 07:55:43;;;;;;;1.33;1.23;;;;;;;7.80;100.00;99722.91;4884310;29;20216;-81
2022/02/05 07:58:09;;;;;;;1.17;1.07;;;;;;;7.74;100.00;99723.72;4868682;29;20199;-82
2022/02/05 08:00:36;;;;;;;1.27;1.10;;;;;;;7.70;100.00;99735.81;4868678;29;20274;-81
2022/02/05 08:03:03;;;;;;;1.30;1.20;;;;;;;7.43;100.00;99729.50;4884163;29;20199;-81
2022/02/05 08:05:30;;;;;;;1.73;1.30;;;;;;;7.44;100.00;99739.97;4883586;29;20199;-81
2022/02/05 08:07:58;;;;;;;1.90;1.30;;;;;;;7.38;100.00;99747.91;4884096;29;20199;-81
2022/02/05 08:10:30;;;;;;;2.00;1.30;;;;;;;7.43;100.00;99753.47;4884051;29;20547;-81
2022/02/05 08:12:59;;;;;;;1.37;1.27;;;;;;;7.47;100.00;99746.72;4869394;29;20187;-81
2022/02/05 08:15:32;;;;;;;1.27;1.17;;;;;;;7.49;100.00;99753.53;4883571;29;20314;-81
2022/02/05 08:17:58;;;;;;;1.20;1.10;;;;;;;7.46;100.00;99745.94;4883870;29;20209;-81
2022/02/05 08:20:25;;;;;;;1.20;1.10;;;;;;;7.54;96.25;99752.94;4868432;29;20195;-81
2022/02/05 08:22:52;;;;;;;1.00;1.00;;;;;;;7.52;98.26;99742.47;4883617;29;20282;-81
2022/02/05 08:25:19;;;;;;;1.43;0.90;;;;;;;7.57;98.84;99755.19;4868495;29;20217;-81
2022/02/05 08:27:46;;;;;;;0.90;0.90;;;;;;;7.73;95.01;99754.06;4900136;29;20227;-80
2022/02/05 08:30:15;;;;;;;1.03;1.00;;;;;;;7.72;92.33;99763.06;4883532;29;20494;-81
2022/02/05 08:32:44;;;;;;;0.90;0.90;;;;;;;7.81;88.13;99760.03;4861384;29;20221;-81
2022/02/05 08:35:11;;;;;;;1.00;1.00;;;;;;;7.84;85.85;99762.31;4901542;29;20650;-81
2022/02/05 08:37:40;;;;;;;1.10;1.00;;;;;;;7.77;85.80;99773.97;4870960;29;20285;-81
2022/02/05 08:40:07;;;;;;;0.80;0.80;;;;;;;7.71;86.44;99775.59;4901763;29;20205;-81
2022/02/05 08:42:34;;;;;;;1.33;1.00;;;;;;;7.85;87.43;99787.97;4885726;29;20326;-81
2022/02/05 08:45:01;;;;;;;0.90;0.90;;;;;;;7.92;82.76;99785.34;4885950;29;20202;-81
2022/02/05 08:47:29;;;;;;;0.73;0.73;;;;;;;7.91;81.09;99789.84;4901468;29;20206;-81
2022/02/05 08:49:56;;;;;;;0.90;0.90;;;;;;;7.94;82.46;99786.78;4908819;29;20222;-81
2022/02/05 08:52:24;;;;;;;0.87;0.87;;;;;;;8.02;80.63;99793.81;4918171;29;20281;-81
2022/02/05 08:54:51;;;;;;;0.70;0.70;;;;;;;8.05;77.89;99801.41;4885849;29;20214;-80
2022/02/05 08:57:18;;;;;;;1.00;0.90;;;;;;;7.97;75.93;99806.91;4922189;29;20190;-81
2022/02/05 08:59:57;;;;;;;0.70;0.70;;;;;;;7.93;73.58;99805.66;4924685;29;20198;-81
2022/02/05 09:02:35;;;;;;;0.97;0.70;;;;;;;7.88;74.63;99808.09;4899564;29;20198;-80
2022/02/05 09:05:12;;;;;;;0.60;0.60;;;;;;;7.88;75.00;99813.44;4886791;29;20190;-80
2022/02/05 09:07:41;;;;;;;0.70;0.70;;;;;;;7.80;76.33;99800.25;4898603;29;20198;-80
2022/02/05 09:13:08;;;;;;;0.80;0.80;;;;;;;7.62;71.48;99810.59;4905802;29;20205;-80
2022/02/05 09:15:32;;;;;;;1.57;1.47;;;;;;;7.66;70.31;99817.19;4917302;29;20214;-81
2022/02/05 09:17:59;;;;;;;1.17;0.80;;;;;;;7.56;69.70;99806.09;4897995;29;20216;-80
2022/02/05 09:20:26;;;;;;;1.90;1.13;;;;;;;7.44;72.41;99835.09;4885105;29;20221;-80
2022/02/05 09:22:56;;;;;;;1.33;1.23;;;;;;;7.26;72.90;99822.28;4901072;29;20198;-79
2022/02/05 09:25:23;;;;;;;1.30;1.20;;;;;;;7.29;75.76;99821.03;4900502;29;20591;-80
2022/02/05 09:27:50;;;;;;;1.93;1.17;;;;;;;7.25;74.47;99828.63;4884830;29;20203;-79
2022/02/05 09:30:28;;;;;;;1.40;1.30;;;;;;;7.12;75.34;99830.34;4867649;29;20193;-81
2022/02/05 09:32:55;;;;;;;1.73;1.40;;;;;;;7.19;75.95;99844.53;4904075;29;20190;-79
2022/02/05 09:35:23;;;;;;;1.30;1.20;;;;;;;7.21;78.59;99855.84;4900880;29;20210;-79
2022/02/05 09:37:49;;;;;;;1.03;1.03;;;;;;;7.14;78.55;99842.44;4898288;29;20599;-79
2022/02/05 09:40:16;;;;;;;1.93;1.63;;;;;;;7.01;76.41;99834.34;4879890;29;20288;-79
2022/02/05 09:42:47;;;;;;;1.87;1.10;;;;;;;7.03;77.33;99849.16;4897809;29;20243;-79
2022/02/05 09:45:14;;;;;;;1.90;1.27;;;;;;;6.92;76.16;99862.97;4881826;29;20213;-79
2022/02/05 09:47:45;;;;;;;1.43;1.30;;;;;;;6.80;77.46;99855.69;4866544;29;20567;-79
2022/02/05 09:50:13;;;;;;;1.87;0.90;;;;;;;6.61;76.28;99857.94;4866637;29;20251;-80
2022/02/05 09:52:40;;;;;;;1.03;0.80;;;;;;;6.58;73.66;99847.66;4882802;29;20199;-79
2022/02/05 09:55:11;;;;;;;0.90;0.90;;;;;;;6.67;76.17;99874.19;4883846;29;20535;-80
2022/02/05 09:57:37;;;;;;;1.43;0.97;;;;;;;6.73;77.04;99879.56;4866491;29;20242;-79
2022/02/05 10:00:07;;;;;;;0.90;0.90;;;;;;;6.86;76.95;99884.22;4866867;29;20487;-79
2022/02/05 10:02:43;;;;;;;1.00;0.90;;;;;;;7.00;73.30;99875.31;4915536;29;20230;-79
2022/02/05 10:05:17;;;;;;;0.87;0.80;;;;;;;7.16;71.54;99892.91;4884825;29;20195;-81
2022/02/05 10:07:53;;;;;;;1.00;0.90;;;;;;;7.42;69.56;99885.13;4886239;29;20248;-79
2022/02/05 10:10:20;;;;;;;1.60;1.00;;;;;;;7.69;70.86;99897.66;4884732;29;20511;-80
2022/02/05 10:13:12;;;;;;;1.27;1.00;;;;;;;7.98;67.56;99902.75;4884610;29;20219;-80
2022/02/05 10:15:41;;;;;;;1.43;0.90;;;;;;;7.88;68.78;99896.13;4919962;29;20210;-79
2022/02/05 10:18:24;;;;;;;2.47;1.17;;;;;;;8.19;65.72;99885.00;4899195;29;20198;-79
2022/02/05 10:20:54;;;;;;;1.53;1.00;;;;;;;8.39;65.27;99886.78;4885344;29;20205;-79
2022/02/05 10:23:21;;;;;;;1.50;1.17;;;;;;;8.64;64.67;99896.94;4869236;29;20205;-79
2022/02/05 10:25:49;;;;;;;1.67;1.00;;;;;;;8.88;63.78;99893.72;4915841;29;20542;-79
2022/02/05 10:28:17;;;;;;;1.97;0.83;;;;;;;9.21;66.82;99885.75;4886243;29;20281;-80
2022/02/05 10:30:52;;;;;;;1.17;1.00;;;;;;;9.47;65.43;99880.41;4887552;29;20202;-81
2022/02/05 10:33:25;;;;;;;2.23;1.30;;;;;;;9.71;62.82;99895.00;4924040;29;20207;-81
2022/02/05 10:44:11;;;;;;;2.10;1.10;;;;;;;9.22;63.14;99863.34;4922656;29;20186;-80
2022/02/05 10:46:42;;;;;;;1.27;1.00;;;;;;;8.93;63.63;99867.22;4920220;29;20180;-80
2022/02/05 10:49:11;;;;;;;1.83;0.90;;;;;;;8.81;63.85;99874.19;4903713;29;20187;-80
2022/02/05 10:51:45;;;;;;;1.10;1.00;;;;;;;8.77;66.57;99870.28;4923506;29;20211;-80
2022/02/05 10:54:31;;;;;;;1.30;0.90;;;;;;;8.62;63.96;99857.09;4906769;29;20193;-79
2022/02/05 10:57:52;;;;;;;1.17;0.93;;;;;;;8.65;64.12;99866.53;4922420;29;20203;-80
2022/02/05 11:05:50;;;;;;;1.40;1.20;;;;;;;8.25;62.30;99852.19;4920728;29;20219;-80
2022/02/05 11:08:19;;;;;;;2.00;1.10;;;;;;;8.27;63.18;99850.97;4886867;29;20243;-80
2022/02/05 11:19:11;;;;;;;3.13;0.87;;;;;;;8.97;59.55;99867.63;4898249;29;20194;-81
2022/02/05 11:22:04;;;;;;;1.63;0.90;;;;;;;9.31;60.20;99859.44;4929648;23;20233;-80
2022/02/05 11:24:32;;;;;;;2.30;0.90;;;;;;;9.43;55.95;99854.28;4872059;29;20313;-80
2022/02/05 11:26:59;;;;;;;1.87;1.00;;;;;;;9.45;56.14;99861.09;4887455;29;20571;-79
2022/02/05 11:29:28;;;;;;;2.60;1.03;;;;;;;9.64;54.53;99870.13;4887521;29;20491;-79
2022/02/05 11:32:15;;;;;;;2.13;1.00;;;;;;;9.55;55.09;99879.38;4887623;29;20270;-80
2022/02/05 11:34:50;;;;;;;2.17;1.00;;;;;;;9.77;54.89;99883.47;4887849;29;20486;-80
2022/02/05 11:37:17;;;;;;;2.77;1.10;;;;;;;9.68;55.36;99874.84;4887406;29;20308;-79
2022/02/05 11:39:52;;;;;;;1.20;0.90;;;;;;;9.97;52.69;99867.38;4902784;29;20187;-79
2022/02/05 11:42:31;;;;;;;1.17;0.80;;;;;;;9.69;53.72;99884.53;4887672;29;20193;-79
2022/02/05 11:45:02;;;;;;;1.97;0.90;;;;;;;9.75;55.11;99872.16;4903171;29;20242;-80
2022/02/05 11:47:30;;;;;;;1.93;1.00;;;;;;;9.99;56.24;99887.53;4887593;29;20186;-80
2022/02/05 11:49:57;;;;;;;2.37;1.03;;;;;;;10.21;51.22;99877.44;4902929;29;20282;-80
2022/02/05 11:52:40;;;;;;;1.93;0.90;;;;;;;10.06;52.29;99893.72;4903031;29;20195;-79
2022/02/05 11:55:11;;;;;;;1.53;0.97;;;;;;;9.95;52.84;99882.81;4919197;29;20189;-80
2022/02/05 11:57:44;;;;;;;1.00;0.80;;;;;;;10.04;51.27;99884.22;4919438;29;20191;-80
2022/02/05 12:00:24;;;;;;;2.40;0.83;;;;;;;9.98;53.78;99890.44;4902642;29;20191;-80
2022/02/05 12:02:59;;;;;;;1.17;0.90;;;;;;;9.86;51.19;99876.03;4903417;29;20470;-78
2022/02/05 12:05:32;;;;;;;1.93;1.10;;;;;;;10.04;50.64;99874.34;4887900;29;20190;-80
2022/02/05 12:08:04;;;;;;;2.80;1.00;;;;;;;10.08;52.02;99880.09;4887503;29;20253;-79
2022/02/05 12:10:42;;;;;;;3.43;1.10;;;;;;;10.27;49.75;99886.47;4901759;29;20813;-79
2022/02/05 12:13:14;;;;;;;1.67;0.80;;;;;;;9.99;51.05;99876.00;4886955;29;20197;-80
2022/02/05 12:15:46;;;;;;;1.33;0.90;;;;;;;9.91;50.35;99871.72;4883457;29;20637;-79
2022/02/05 12:18:18;;;;;;;1.03;0.80;;;;;;;9.98;51.19;99867.19;4899009;29;20183;-79
2022/02/05 12:20:52;;;;;;;1.00;0.80;;;;;;;9.89;50.25;99865.72;4883941;29;20317;-81
2022/02/05 12:25:59;;;;;;;1.37;0.80;;;;;;;10.27;48.31;99873.91;4883602;29;20191;-80
2022/02/05 12:28:29;;;;;;;0.80;0.73;;;;;;;10.09;48.04;99879.91;4898708;29;20211;-79
2022/02/05 12:30:56;;;;;;;1.43;0.73;;;;;;;10.10;49.62;99873.53;4899885;29;20212;-78
2022/02/05 12:33:24;;;;;;;2.03;0.90;;;;;;;10.05;49.85;99853.75;4883357;29;20202;-79
2022/02/05 12:35:53;;;;;;;1.30;0.80;;;;;;;9.99;51.44;99868.81;4867625;29;20219;-79
2022/02/05 12:38:19;;;;;;;2.00;0.80;;;;;;;9.88;51.65;99860.63;4883367;29;20254;-80
2022/02/05 12:40:49;;;;;;;4.27;1.10;;;;;;;9.43;52.75;99871.16;4867730;29;20195;-79
2022/02/05 12:43:19;;;;;;;1.70;1.00;;;;;;;9.29;54.37;99872.16;4898214;29;20504;-79
2022/02/05 12:45:59;;;;;;;2.10;0.80;;;;;;;8.92;53.49;99854.03;4883390;29;20191;-79
2022/02/05 12:48:27;;;;;;;1.93;1.10;;;;;;;8.94;54.34;99855.50;4882844;29;20203;-80
2022/02/05 12:50:57;;;;;;;2.40;0.90;;;;;;;9.00;55.73;99857.38;4883158;29;20274;-80
2022/02/05 12:53:30;;;;;;;1.67;0.80;;;;;;;8.68;55.29;99866.13;4866447;29;20202;-80
2022/02/05 12:56:40;;;;;;;2.37;0.87;;;;;;;8.75;54.94;99862.44;4883133;29;20257;-79
2022/02/05 12:59:14;;;;;;;1.57;0.73;;;;;;;8.47;53.54;99835.06;4848145;29;20377;-80
2022/02/05 13:01:56;;;;;;;2.43;0.77;;;;;;;8.43;54.58;99830.31;4883388;29;20203;-80
2022/02/05 13:04:24;;;;;;;0.97;0.70;;;;;;;8.80;55.42;99849.31;4883186;29;20623;-79
2022/02/05 13:07:01;;;;;;;1.93;0.70;;;;;;;8.51;54.14;99844.31;4898115;29;20215;-79
2022/02/05 13:09:28;;;;;;;1.80;0.67;;;;;;;8.81;53.59;99834.94;4899290;29;20179;-79
2022/02/05 13:12:01;;;;;;;2.33;0.80;;;;;;;9.08;53.69;99849.16;4882788;29;20503;-79
2022/02/05 13:14:34;;;;;;;1.77;0.70;;;;;;;8.86;51.44;99845.03;4883349;29;20171;-79
2022/02/05 13:17:01;;;;;;;2.20;0.80;;;;;;;8.86;53.01;99838.84;4897938;29;20222;-79
2022/02/05 13:19:39;;;;;;;1.93;0.70;;;;;;;9.09;53.08;99847.31;4882877;29;20480;-79
2022/02/05 13:36:09;;;;;;;2.37;0.90;;;;;;;9.36;49.66;99845.44;4903859;29;20186;-79
2022/02/05 13:39:01;;;;;;;1.10;0.70;;;;;;;9.41;50.58;99846.47;4901872;29;20258;-79
2022/02/05 13:41:54;;;;;;;1.97;0.60;;;;;;;9.48;51.65;99855.31;4875313;29;20194;-79
2022/02/05 13:44:24;;;;;;;1.70;0.60;;;;;;;9.48;52.03;99849.13;4903309;29;20186;-80
2022/02/05 13:47:11;;;;;;;2.80;0.90;;;;;;;9.47;50.85;99842.94;4901779;29;20183;-80
2022/02/05 13:49:38;;;;;;;1.43;0.70;;;;;;;9.42;51.35;99845.47;4901363;29;20610;-79
2022/02/05 13:52:10;;;;;;;1.63;0.80;;;;;;;9.30;50.87;99841.75;4917667;29;20763;-79
2022/02/05 13:54:39;;;;;;;1.07;0.73;;;;;;;9.33;49.47;99843.19;4902468;29;20186;-78
2022/02/05 13:57:10;;;;;;;0.60;0.60;;;;;;;9.39;50.84;99845.84;4902224;29;20199;-79
2022/02/05 13:59:37;;;;;;;0.87;0.80;;;;;;;9.46;50.31;99848.53;4901822;29;20198;-78
2022/02/05 14:02:17;;;;;;;2.20;0.80;;;;;;;9.66;51.58;99850.13;4887234;29;20190;-79
2022/02/05 14:05:04;;;;;;;1.57;0.80;;;;;;;9.75;49.91;99868.66;4902614;29;20178;-78
2022/02/05 14:07:44;;;;;;;2.60;0.87;;;;;;;9.73;48.05;99842.94;4919689;29;20186;-80
2022/02/05 14:10:16;;;;;;;2.30;0.80;;;;;;;9.82;49.34;99853.41;4903762;29;20186;-80
2022/02/05 14:13:11;;;;;;;1.57;0.70;;;;;;;9.84;49.51;99859.38;4909869;29;20198;-81
2022/02/05 14:15:58;;;;;;;2.27;1.00;;;;;;;9.69;48.18;99848.91;4923832;29;20245;-77
2022/02/05 14:18:26;;;;;;;1.70;0.80;;;;;;;9.77;53.93;99871.94;4885738;29;20203;-79
2022/02/05 14:20:54;;;;;;;1.73;0.93;;;;;;;9.66;49.84;99878.75;4881574;29;20270;-79
2022/02/05 14:23:28;;;;;;;2.43;0.90;;;;;;;9.60;50.00;99882.25;4881778;29;20488;-79
2022/02/05 14:26:11;;;;;;;1.33;0.73;;;;;;;9.40;50.99;99871.56;4882160;29;20196;-76
2022/02/05 14:28:51;;;;;;;1.70;1.00;;;;;;;9.20;51.42;99866.22;4899610;29;20214;-80
2022/02/05 14:31:31;;;;;;;2.80;0.90;;;;;;;9.22;51.91;99866.00;4883515;29;20204;-80
2022/02/05 14:34:12;;;;;;;1.20;1.07;;;;;;;9.21;54.42;99880.41;4901433;29;20179;-80
2022/02/05 14:42:14;;;;;;;1.50;0.90;;;;;;;9.05;53.50;99880.81;4904256;29;20175;-78
2022/02/05 14:44:42;;;;;;;1.67;0.83;;;;;;;9.07;54.48;99882.25;4888202;29;20199;-78
2022/02/05 14:47:10;;;;;;;2.07;0.90;;;;;;;9.07;55.59;99882.25;4904692;29;20193;-77
2022/02/05 14:49:41;;;;;;;1.40;0.90;;;;;;;9.02;57.44;99889.22;4873389;29;20226;-78